^^

..:: Metar reader and decoder ::..




OSSERVAZIONI E PREVISIONI METEOROLOGICHE DAGLI AEROPORTI ITALIANI
(messaggi METAR)

 


LIPX - Villafranca(Cv/M, Italy
Distanza dalla stazione: NNE 28km
Dati ricevuti: Thu, 23-May-2024 19:50
Sereno
Sereno
 Vento da O
Vento: O 11 km/h
Temperatura: 16°C
P.to Rugiada: 13°C
Umidità: 83%
Barometro: 1015 hPa
Sommario: Sereno
Visibilità: superiore a 10 km
2024/05/23 17:50 LIPX 231750Z 27006KT CAVOK 16/13 Q1015
LIPO - Brescia/Montichiari, Italy
Distanza dalla stazione: NO 38km
Dati ricevuti: Thu, 23-May-2024 19:50
Sereno
Sereno
 Vento da SO
Vento: SO 6 km/h
Temperatura: 18°C
P.to Rugiada: 12°C
Umidità: 68%
Barometro: 1016 hPa
Nuvole: Sereno
Visibilità: 10 km
2024/05/23 17:50 LIPO 231750Z AUTO 22003KT 180V260 9999 NCD 18/12 Q1016
 
LIPL - Ghedi (it-Afb), Italy
Distanza dalla stazione: NO 42km
Dati ricevuti: Thu, 23-May-2024 19:55
Sereno
Sereno
 Vento da O
Vento: O 7 km/h
Temperatura: 18°C
P.to Rugiada: 14°C
Umidità: 78%
Barometro: 1015 hPa
Sommario: Sereno
Visibilità: superiore a 10 km
2024/05/23 17:55 LIPL 231755Z 28004KT CAVOK 18/14 Q1015
LIMP - Parma, Italy
Distanza dalla stazione: SO 49km
Dati ricevuti: Thu, 23-May-2024 19:50
Few Clouds
Few Clouds
 Vento da O
Vento: O 9 km/h
Temperatura: 17°C
P.to Rugiada: 13°C
Umidità: 77%
Barometro: 1016 hPa
Nuvole: Few Clouds
Visibilità: 10 km
Dettaglio nuvole: Few Clouds 610 m
2024/05/23 17:50 LIMP 231750Z 26005KT 9999 FEW020 17/13 Q1016
 
LIMS - Piacenza (it-Afb, Italy
Distanza dalla stazione: OSO 81km
Dati ricevuti: Thu, 23-May-2024 19:55
Few Clouds
Few Clouds
 Vento da calmo
Vento: Calma
Temperatura: 18°C
P.to Rugiada: 18°C
Umidità: 100%
Barometro: 1015 hPa
Nuvole: Few Clouds
Visibilità: 10 km
Dettaglio nuvole: Few Clouds 1219 m
2024/05/23 17:55 LIMS 231755Z 00000KT 9999 FEW040 18/18 Q1015
LIPF - Ferrara (aut), Italy
Distanza dalla stazione: ESE 84km
Dati ricevuti: Thu, 23-May-2024 19:55
Sereno
Sereno
 Vento da calmo
Vento: Calma
Temperatura: 19°C
P.to Rugiada: 15°C
Umidità: 78%
Barometro: 1016 hPa
Sommario: Sereno
Visibilità: superiore a 10 km
2024/05/23 17:55 LIPF 231755Z 00000KT CAVOK 19/15 Q1016
 
LIPE - Bologna/Borgo (a, Italy
Distanza dalla stazione: SE 88km
Dati ricevuti: Thu, 23-May-2024 19:50
Sereno
Sereno
 Vento da Variabile
Vento: Variabile 4 km/h
Temperatura: 18°C
P.to Rugiada: 13°C
Umidità: 73%
Barometro: 1016 hPa
Sommario: Sereno
Visibilità: superiore a 10 km
2024/05/23 17:50 LIPE 231750Z VRB02KT CAVOK 18/13 Q1016
LIPU - Padova (civ/It-A, Italy
Distanza dalla stazione: ENE 93km
Dati ricevuti: Thu, 23-May-2024 15:50
DATI Obsoleti
Parz. nuvoloso
Parz. nuvoloso
 Vento da SO
Vento: SO 7 km/h
Temperatura: 23°C
P.to Rugiada: 11°C
Umidità: 47%
Barometro: 1014 hPa
Nuvole: Parz. nuvoloso
Visibilità: 10 km
Dettaglio nuvole: Parz. nuvoloso 1219 m
2024/05/23 13:50 LIPU 231350Z 23004KT 190V270 9999 SCT040 23/11 Q1014
 
LIME - Bergamo/Orio Ser, Italy
Distanza dalla stazione: NO 95km
Dati ricevuti: Thu, 23-May-2024 19:50
Pioviggine, Parz. nuvoloso
Pioviggine, Parz. nuvoloso
 Vento da O
Vento: O 7 km/h
Temperatura: 16°C
P.to Rugiada: 12°C
Umidità: 77%
Barometro: 1016 hPa
Sommario: Pioviggine
Nuvole: Parz. nuvoloso
Visibilità: 10 km
Dettaglio nuvole: Few Clouds 1219 m
Parz. nuvoloso 2134 m
2024/05/23 17:50 LIME 231750Z 28004KT 260V320 9999 -RA FEW040 SCT070 16/12 Q1016 NOSIG
LIMT - Cisa Pass, Italy
Distanza dalla stazione: SO 103km
Dati ricevuti: Mon, 23-Sep-2019 13:55
DATI Obsoleti
Nebbia
Nebbia
 Vento da calmo
Vento: Calma
Temperatura: 10°C
P.to Rugiada: 10°C
Umidità: 100%
Barometro: 1014 hPa
Sommario: Nebbia
Visibilità: 0 km
2019/09/23 11:55 LIMT 231155Z 00000KT 0000 FG VV/// 10/10 Q1014 RMK MON INVIS VAL INVIS VIS MIN 0000
 
LIVC - Cimone Mountain, Italy
Distanza dalla stazione: S 108km
Dati ricevuti: Thu, 23-May-2024 19:55

 Vento da SSO
Vento: SSO 9 km/h
Temperatura: 5°C
Temperatura del Vento: 3°C
P.to Rugiada: 3°C
Umidità: 87%
Barometro: 1020 hPa
2024/05/23 17:55 LIVC 231755Z AUTO 21005KT //// 05/03 Q1020
LIVP - Paganella Mounta, Italy
Distanza dalla stazione: NNE 112km
Dati ricevuti: Thu, 23-May-2024 18:55
Few Clouds
Few Clouds
 Vento da SSO
Vento: SSO 13 km/h
Temperatura: 2°C
Temperatura del Vento: -1°C
P.to Rugiada: 1°C
Umidità: 93%
Barometro: 1018 hPa
Nuvole: Few Clouds
Visibilità: 10 km
Dettaglio nuvole: Few Clouds 1006 m
2024/05/23 16:55 LIVP 231655Z 20007KT 9999 FEW033 02/01 Q1018
 
LIML - Milano/Linate, Italy
Distanza dalla stazione: ONO 115km
Dati ricevuti: Thu, 23-May-2024 19:50
Parz. nuvoloso
Parz. nuvoloso
 Vento da E
Vento: E 7 km/h
Temperatura: 17°C
P.to Rugiada: 14°C
Umidità: 83%
Barometro: 1016 hPa
Nuvole: Parz. nuvoloso
Visibilità: 10 km
Dettaglio nuvole: Few Clouds 610 m
Parz. nuvoloso 2743 m
2024/05/23 17:50 LIML 231750Z 08004KT 9999 FEW020 SCT090 17/14 Q1016 NOSIG
LIPS - Istrana (it-Afb), Italy
Distanza dalla stazione: ENE 123km
Dati ricevuti: Thu, 23-May-2024 19:55
Pioviggine, Nuvoloso
Pioviggine, Nuvoloso
 Vento da NNE
Vento: NNE 7 km/h
Temperatura: 17°C
P.to Rugiada: 14°C
Umidità: 83%
Barometro: 1015 hPa
Sommario: Pioviggine
Nuvole: Molto nuvoloso
Visibilità: 10 km
Dettaglio nuvole: Few Clouds 610 m
Molto nuvoloso 762 m
2024/05/23 17:55 LIPS 231755Z 03004KT 9999 -RA FEW020TCU BKN025 17/14 Q1015
 
LIPH - Treviso(Civ/It-A, Italy
Distanza dalla stazione: ENE 127km
Dati ricevuti: Thu, 23-May-2024 19:50
Sereno
Sereno
 Vento da SSE
Vento: SSE 9 km/h
Temperatura: 17°C
P.to Rugiada: 14°C
Umidità: 83%
Barometro: 1016 hPa
Sommario: Sereno
Visibilità: superiore a 10 km
2024/05/23 17:50 LIPH 231750Z 16005KT 100V210 CAVOK 17/14 Q1016
LIPZ - Venezia/Tessera, Italy
Distanza dalla stazione: ENE 133km
Dati ricevuti: Thu, 23-May-2024 19:50
Few Clouds
Few Clouds
 Vento da NNO
Vento: NNO 9 km/h
Temperatura: 18°C
P.to Rugiada: 12°C
Umidità: 68%
Barometro: 1015 hPa
Nuvole: Few Clouds
Visibilità: 10 km
Dettaglio nuvole: Few Clouds 914 m
2024/05/23 17:50 LIPZ 231750Z 34005KT 320V020 9999 FEW030 18/12 Q1015 NOSIG
 
LIQW - Sarzana/Luni, Italy
Distanza dalla stazione: SSO 135km
Dati ricevuti: Thu, 23-May-2024 15:55
DATI Obsoleti
Parz. nuvoloso
Parz. nuvoloso
 Vento da SSO
Vento: SSO 9 km/h
Temperatura: 20°C
P.to Rugiada: 15°C
Umidità: 73%
Barometro: 1017 hPa
Nuvole: Parz. nuvoloso
Visibilità: 10 km
Dettaglio nuvole: Parz. nuvoloso 762 m
2024/05/23 13:55 LIQW 231355Z 20005KT 9999 SCT025 20/15 Q1017
LIVR - Rolle Pass, Italy
Distanza dalla stazione: NE 150km
Dati ricevuti: Thu, 23-May-2024 19:55
Molto nuvoloso
Molto nuvoloso
 Vento da SE
Vento: SE 15 km/h
Temperatura: 4°C
Temperatura del Vento: 1°C
P.to Rugiada: 4°C
Umidità: 100%
Barometro: 1018 hPa
Nuvole: Molto nuvoloso
Visibilità: 10 km
Dettaglio nuvole: Molto nuvoloso 762 m
2024/05/23 17:55 LIVR 231755Z 14008KT 9999 BKN025 04/04 Q1018
 
LIPC - Cervia (it-Afb), Italy
Dati ricevuti: Thu, 23-May-2024 19:55
Few Clouds
Few Clouds
 Vento da NNE
Vento: NNE 13 km/h
Temperatura: 20°C
P.to Rugiada: 15°C
Umidità: 73%
Barometro: 1016 hPa
Nuvole: Few Clouds
Visibilità: 10 km
Dettaglio nuvole: Few Clouds 1219 m
2024/05/23 17:55 LIPC 231755Z 02007KT 9999 FEW040 20/15 Q1016
LIPR - Rimini (civ/It-A, Italy
Dati ricevuti: Thu, 23-May-2024 19:50
Parz. nuvoloso
Parz. nuvoloso
 Vento da SE
Vento: SE 13 km/h
Temperatura: 21°C
P.to Rugiada: 13°C
Umidità: 60%
Barometro: 1015 hPa
Nuvole: Parz. nuvoloso
Visibilità: 10 km
Dettaglio nuvole: Parz. nuvoloso 1829 m
2024/05/23 17:50 LIPR 231750Z 13007KT 9999 SCT060 21/13 Q1015






METEO PILLOLE
Il ciclone tropicale di maggiore durata
Oceano Pacifico
Il sistema di tempeste battezzato John percorre in lungo e in largo il Pacifico per ben 31 giorni, tra l'agosto e il settembre 1994.

Do NOT follow this link or you will be banned from the site!